Time;durP1;ratioP1;P1;durP2;ratioP2;P2;SDS_P1;SDS_P2;PMS_P1;PMS_P2;Temp;Humidity;BMP_temperature;BMP_pressure;BME280_temperature;BME280_humidity;BME280_pressure;Samples;Min_cycle;Max_cycle;Signal;HPM_P1;HPM_P2
2022/03/18 00:00:20;;;;;;;0.45;0.45;;;19.30;43.30;;;;;;5025513;28;20041;-56
2022/03/18 00:02:48;;;;;;;0.40;0.30;;;19.30;43.30;;;;;;5026157;28;20124;-55
2022/03/18 00:05:17;;;;;;;1.08;0.40;;;19.30;43.30;;;;;;5025892;28;20045;-57
2022/03/18 00:07:45;;;;;;;1.65;0.82;;;19.20;43.30;;;;;;5025527;28;20041;-56
2022/03/18 00:10:13;;;;;;;1.38;0.77;;;19.20;43.30;;;;;;5024285;28;20050;-51
2022/03/18 00:12:41;;;;;;;1.35;0.22;;;19.20;43.20;;;;;;5026302;28;20116;-52
2022/03/18 00:15:09;;;;;;;0.30;0.30;;;19.30;43.30;;;;;;5025792;28;20045;-51
2022/03/18 00:17:37;;;;;;;1.02;0.38;;;19.20;43.20;;;;;;5026024;28;20072;-54
2022/03/18 00:20:05;;;;;;;1.20;0.65;;;19.20;43.20;;;;;;5023614;28;20098;-54
2022/03/18 00:22:34;;;;;;;1.45;0.88;;;19.20;43.20;;;;;;5025525;28;20136;-57
2022/03/18 00:25:01;;;;;;;0.57;0.55;;;19.20;43.20;;;;;;5025392;28;20049;-56
2022/03/18 00:27:28;;;;;;;1.77;0.70;;;19.20;43.20;;;;;;5027286;28;20084;-53
2022/03/18 00:29:56;;;;;;;1.02;0.40;;;19.20;43.20;;;;;;5025283;28;20042;-56
2022/03/18 00:32:24;;;;;;;1.85;0.30;;;19.20;43.20;;;;;;5025915;28;20119;-55
2022/03/18 00:34:51;;;;;;;1.13;0.40;;;19.20;43.20;;;;;;5025268;28;20067;-57
2022/03/18 00:37:18;;;;;;;0.50;0.50;;;19.20;43.20;;;;;;5025459;28;20558;-56
2022/03/18 00:39:47;;;;;;;1.17;0.50;;;19.10;43.70;;;;;;5023779;28;20038;-56
2022/03/18 00:42:14;;;;;;;0.93;0.60;;;19.10;43.10;;;;;;5026227;28;20048;-54
2022/03/18 00:44:41;;;;;;;1.67;0.45;;;19.10;43.10;;;;;;5025331;28;20069;-56
2022/03/18 00:52:03;;;;;;;1.00;0.30;;;19.10;43.10;;;;;;5025531;28;20049;-53
2022/03/18 00:52:41;;;;;;;0.93;0.30;;;19.10;43.20;;;;;;5025103;28;20041;-56
2022/03/18 00:55:10;;;;;;;1.30;0.32;;;19.10;43.20;;;;;;5024144;28;20030;-58
2022/03/18 00:57:37;;;;;;;1.38;0.52;;;19.10;43.20;;;;;;5026645;28;20674;-56
2022/03/18 01:00:06;;;;;;;1.20;0.43;;;19.10;43.10;;;;;;5026112;28;20041;-57
2022/03/18 01:02:33;;;;;;;0.40;0.40;;;19.10;43.10;;;;;;5025469;28;20072;-50
2022/03/18 01:05:00;;;;;;;0.57;0.22;;;19.10;43.20;;;;;;5025209;28;20041;-53
2022/03/18 01:07:28;;;;;;;1.58;1.15;;;19.00;43.10;;;;;;5025061;28;20136;-54
2022/03/18 01:09:56;;;;;;;0.82;0.20;;;19.00;43.10;;;;;;5024851;28;20051;-54
2022/03/18 01:12:24;;;;;;;0.40;0.35;;;19.00;43.10;;;;;;5027095;28;20046;-54
2022/03/18 01:14:51;;;;;;;2.83;0.40;;;19.00;43.10;;;;;;5025002;28;20064;-53
2022/03/18 01:17:19;;;;;;;1.02;0.32;;;19.00;43.10;;;;;;5025177;28;20136;-55
2022/03/18 01:19:46;;;;;;;1.05;0.22;;;19.00;43.10;;;;;;5025235;28;20418;-57
2022/03/18 01:22:13;;;;;;;2.75;0.38;;;19.00;43.10;;;;;;5025949;28;20042;-55
2022/03/18 01:24:40;;;;;;;1.08;0.40;;;19.00;43.10;;;;;;5025375;28;20034;-55
2022/03/18 01:27:08;;;;;;;1.05;0.40;;;19.00;43.10;;;;;;5026589;28;20158;-55
2022/03/18 01:29:37;;;;;;;1.77;0.60;;;19.00;43.10;;;;;;5025044;28;20041;-54
2022/03/18 01:32:04;;;;;;;1.95;0.50;;;19.00;43.10;;;;;;5024979;28;20056;-53
2022/03/18 01:34:31;;;;;;;1.13;0.55;;;19.00;43.10;;;;;;5026946;28;20052;-57
2022/03/18 01:36:58;;;;;;;0.82;0.52;;;19.00;43.10;;;;;;5025304;28;20049;-54
2022/03/18 01:39:25;;;;;;;1.63;0.60;;;19.00;43.10;;;;;;5026485;28;20041;-52
2022/03/18 01:41:53;;;;;;;1.92;0.40;;;19.00;43.10;;;;;;5028360;28;20069;-55
2022/03/18 01:44:20;;;;;;;0.55;0.55;;;18.90;43.00;;;;;;5028591;28;20145;-52
2022/03/18 01:46:48;;;;;;;4.45;0.55;;;19.00;43.10;;;;;;5028544;28;20112;-57
2022/03/18 01:49:16;;;;;;;0.98;0.70;;;18.90;43.10;;;;;;5028556;28;20541;-51
2022/03/18 01:51:43;;;;;;;0.90;0.38;;;18.90;43.10;;;;;;5028415;28;20553;-56
2022/03/18 01:56:55;;;;;;;0.93;0.30;;;18.90;43.10;;;;;;5028342;28;20407;-55
2022/03/18 01:59:22;;;;;;;2.65;0.45;;;18.90;43.10;;;;;;5027758;28;20129;-55
2022/03/18 02:01:51;;;;;;;0.60;0.32;;;18.90;43.10;;;;;;5027911;28;20057;-55
2022/03/18 02:04:19;;;;;;;2.92;0.40;;;18.90;43.10;;;;;;5027989;28;20041;-57
2022/03/18 02:06:47;;;;;;;1.35;0.82;;;18.90;43.10;;;;;;5027919;28;20159;-55
2022/03/18 02:09:14;;;;;;;3.08;1.30;;;18.90;43.10;;;;;;5029290;28;20129;-55
2022/03/18 02:11:41;;;;;;;1.48;0.73;;;18.90;43.70;;;;;;5027876;28;20056;-54
2022/03/18 02:14:08;;;;;;;1.35;0.85;;;18.90;43.10;;;;;;5027769;28;20038;-54
2022/03/18 02:16:39;;;;;;;1.38;0.60;;;18.90;43.10;;;;;;5028302;28;20414;-53
2022/03/18 02:19:07;;;;;;;0.60;0.60;;;18.90;43.20;;;;;;5028012;28;20771;-53
2022/03/18 02:21:38;;;;;;;1.17;1.08;;;18.90;43.20;;;;;;5025067;28;20041;-54
2022/03/18 02:24:07;;;;;;;2.63;0.70;;;18.90;43.20;;;;;;5028375;28;20518;-55
2022/03/18 02:26:35;;;;;;;2.22;1.30;;;18.90;43.20;;;;;;5024083;28;20243;-59
2022/03/18 02:29:03;;;;;;;1.05;0.80;;;18.90;43.20;;;;;;5020051;28;20056;-55
2022/03/18 02:31:31;;;;;;;1.25;0.40;;;18.80;43.20;;;;;;5021248;28;20030;-59
2022/03/18 02:33:58;;;;;;;1.88;1.13;;;18.80;43.20;;;;;;5026769;28;20535;-53
2022/03/18 02:36:26;;;;;;;1.20;0.40;;;18.80;43.10;;;;;;5032377;28;20151;-56
2022/03/18 02:38:53;;;;;;;1.63;0.63;;;18.80;43.10;;;;;;5027239;28;20049;-56
2022/03/18 02:41:21;;;;;;;0.88;0.65;;;18.80;43.20;;;;;;5027385;28;20063;-52
2022/03/18 02:43:48;;;;;;;1.40;0.40;;;18.80;43.20;;;;;;5026670;28;20132;-56
2022/03/18 02:46:16;;;;;;;2.42;0.45;;;18.80;43.20;;;;;;5027014;28;20045;-54
2022/03/18 02:48:43;;;;;;;1.67;0.88;;;18.80;43.10;;;;;;5027695;28;20152;-56
2022/03/18 02:51:10;;;;;;;1.20;0.52;;;18.80;43.10;;;;;;5027905;28;20062;-56
2022/03/18 02:53:37;;;;;;;1.65;0.57;;;18.80;43.20;;;;;;5026917;28;20124;-57
2022/03/18 02:56:05;;;;;;;0.82;0.50;;;18.80;43.20;;;;;;5026695;28;20045;-58
2022/03/18 02:58:35;;;;;;;0.88;0.60;;;18.80;43.20;;;;;;5026915;28;20511;-56
2022/03/18 03:01:02;;;;;;;1.65;0.60;;;18.80;43.20;;;;;;5027192;28;20068;-57
2022/03/18 03:03:30;;;;;;;1.92;0.65;;;18.80;43.10;;;;;;5028840;28;20034;-56
2022/03/18 03:08:43;;;;;;;0.60;0.60;;;18.70;43.20;;;;;;5024420;28;20080;-57
2022/03/18 03:11:10;;;;;;;1.08;0.40;;;18.70;43.20;;;;;;5025997;28;20072;-57
2022/03/18 03:13:38;;;;;;;3.50;1.35;;;18.70;43.20;;;;;;5027090;28;20518;-58
2022/03/18 03:16:06;;;;;;;0.85;0.70;;;18.70;43.20;;;;;;5022253;28;20033;-56
2022/03/18 03:18:33;;;;;;;0.60;0.60;;;18.70;43.20;;;;;;5024168;28;20045;-60
2022/03/18 03:21:00;;;;;;;1.33;0.82;;;18.70;43.20;;;;;;5026595;28;20566;-59
2022/03/18 03:23:27;;;;;;;1.75;0.65;;;18.70;43.20;;;;;;5026717;28;20052;-56
2022/03/18 03:25:55;;;;;;;1.75;0.68;;;18.70;43.20;;;;;;5026297;28;20053;-55
2022/03/18 03:28:23;;;;;;;1.65;0.98;;;18.70;43.20;;;;;;5026775;28;20423;-54
2022/03/18 03:30:51;;;;;;;2.15;0.75;;;18.70;43.20;;;;;;5026809;28;20041;-56
2022/03/18 03:33:18;;;;;;;1.30;0.98;;;18.70;43.20;;;;;;5025779;28;20457;-53
2022/03/18 03:35:45;;;;;;;1.30;0.80;;;18.70;43.90;;;;;;5026103;28;20053;-55
2022/03/18 03:38:14;;;;;;;1.40;0.98;;;18.70;43.30;;;;;;5026038;28;20136;-50
2022/03/18 03:40:43;;;;;;;1.13;1.00;;;18.70;43.20;;;;;;5026337;28;20503;-54
2022/03/18 03:43:10;;;;;;;0.70;0.70;;;18.70;43.20;;;;;;5026369;28;20091;-54
2022/03/18 03:45:37;;;;;;;3.70;0.52;;;18.70;43.30;;;;;;5009971;28;20042;-56
2022/03/18 03:48:07;;;;;;;1.20;1.02;;;18.70;43.30;;;;;;5027052;28;20140;-56
2022/03/18 03:50:35;;;;;;;0.57;0.57;;;18.70;43.30;;;;;;5026735;28;20541;-56
2022/03/18 03:53:03;;;;;;;0.93;0.82;;;18.70;43.30;;;;;;5026595;28;20056;-53
2022/03/18 03:55:31;;;;;;;1.00;0.73;;;18.60;43.20;;;;;;5026034;28;20423;-55
2022/03/18 03:57:58;;;;;;;2.10;0.70;;;18.60;43.30;;;;;;5025963;28;20050;-52
2022/03/18 04:00:25;;;;;;;2.78;0.77;;;18.60;43.30;;;;;;5027591;28;20780;-52
2022/03/18 04:02:52;;;;;;;1.45;0.85;;;18.60;43.90;;;;;;5024016;28;20046;-54
2022/03/18 04:05:20;;;;;;;1.33;1.15;;;18.60;43.30;;;;;;5021263;28;20065;-57
2022/03/18 04:07:47;;;;;;;2.60;1.10;;;18.60;43.20;;;;;;5025690;28;20406;-57
2022/03/18 04:10:14;;;;;;;1.33;0.50;;;18.60;43.20;;;;;;5019381;28;20041;-54
2022/03/18 04:12:43;;;;;;;1.40;0.65;;;18.60;43.30;;;;;;5022703;28;20551;-54
2022/03/18 04:15:10;;;;;;;3.55;1.15;;;18.60;43.20;;;;;;5027059;28;20045;-55
2022/03/18 04:17:38;;;;;;;0.73;0.50;;;18.60;43.20;;;;;;5025309;28;20045;-56
2022/03/18 04:20:06;;;;;;;0.82;0.50;;;18.60;43.20;;;;;;5025573;28;20128;-56
2022/03/18 04:22:35;;;;;;;1.05;0.93;;;18.60;43.20;;;;;;5025719;28;20033;-54
2022/03/18 04:25:02;;;;;;;2.38;0.90;;;18.60;43.20;;;;;;5021383;28;20049;-57
2022/03/18 04:27:30;;;;;;;4.88;1.05;;;18.60;43.20;;;;;;5025669;28;20504;-56
2022/03/18 04:29:57;;;;;;;3.03;0.88;;;18.60;43.20;;;;;;5025295;28;20068;-56
2022/03/18 04:32:24;;;;;;;1.20;0.60;;;18.50;43.20;;;;;;5025279;28;20041;-54
2022/03/18 04:34:51;;;;;;;2.35;0.77;;;18.50;43.20;;;;;;5025589;28;20052;-57
2022/03/18 04:37:18;;;;;;;3.22;0.80;;;18.50;43.20;;;;;;5025114;28;20037;-54
2022/03/18 04:39:46;;;;;;;0.85;0.73;;;18.50;43.20;;;;;;5025578;28;20613;-57
2022/03/18 04:42:13;;;;;;;1.25;0.38;;;18.50;43.20;;;;;;5026548;28;20894;-55
2022/03/18 04:44:40;;;;;;;0.55;0.45;;;18.50;43.10;;;;;;5024789;28;20068;-55
2022/03/18 04:47:08;;;;;;;0.50;0.50;;;18.60;43.20;;;;;;5025086;28;20048;-53
2022/03/18 04:49:35;;;;;;;4.45;1.17;;;18.50;43.10;;;;;;5024857;28;20049;-54
2022/03/18 04:52:02;;;;;;;1.58;0.68;;;18.50;43.10;;;;;;5025500;28;20068;-56
2022/03/18 04:54:29;;;;;;;1.95;0.65;;;18.50;43.10;;;;;;5027051;28;20077;-56
2022/03/18 04:59:42;;;;;;;0.70;0.35;;;18.50;43.10;;;;;;5022256;28;20106;-55
2022/03/18 05:02:10;;;;;;;0.40;0.35;;;18.50;43.20;;;;;;5023653;28;20641;-53
2022/03/18 05:04:37;;;;;;;2.13;0.45;;;18.50;43.20;;;;;;5025229;28;20523;-55
2022/03/18 05:07:05;;;;;;;1.27;0.30;;;18.50;43.20;;;;;;5025132;28;20041;-52
2022/03/18 05:09:32;;;;;;;0.70;0.70;;;18.50;43.20;;;;;;5026674;28;20042;-57
2022/03/18 05:12:00;;;;;;;0.60;0.40;;;18.50;43.10;;;;;;5025189;28;20551;-54
2022/03/18 05:14:28;;;;;;;1.25;0.52;;;18.50;43.20;;;;;;5020433;28;20049;-52
2022/03/18 05:16:54;;;;;;;0.57;0.38;;;18.50;43.20;;;;;;5022501;28;20383;-53
2022/03/18 05:19:22;;;;;;;2.90;0.63;;;18.50;43.20;;;;;;5022681;28;20154;-54
2022/03/18 05:21:49;;;;;;;1.45;0.45;;;18.50;43.20;;;;;;5029165;28;20045;-56
2022/03/18 05:24:16;;;;;;;0.82;0.52;;;18.50;43.20;;;;;;5030303;28;20442;-58
2022/03/18 05:26:43;;;;;;;0.73;0.60;;;18.50;43.10;;;;;;5029128;28;20052;-56
2022/03/18 05:29:13;;;;;;;1.02;0.45;;;18.40;43.00;;;;;;5028662;28;20103;-55
2022/03/18 05:31:42;;;;;;;0.55;0.43;;;18.40;43.00;;;;;;5029125;28;20051;-56
2022/03/18 05:34:09;;;;;;;1.65;0.30;;;18.40;43.00;;;;;;5029240;28;20033;-56
2022/03/18 05:36:36;;;;;;;0.90;0.77;;;18.50;43.10;;;;;;5030408;28;20050;-54
2022/03/18 05:39:03;;;;;;;0.93;0.30;;;18.40;43.00;;;;;;5028961;28;20049;-55
2022/03/18 05:41:31;;;;;;;3.95;1.10;;;18.40;43.10;;;;;;5028379;28;20045;-57
2022/03/18 05:43:58;;;;;;;1.23;0.20;;;18.40;43.10;;;;;;5027473;28;20120;-56
2022/03/18 05:46:26;;;;;;;1.15;0.38;;;18.40;43.10;;;;;;5029039;28;20414;-57
2022/03/18 05:48:53;;;;;;;1.38;0.20;;;18.40;43.00;;;;;;5028485;28;20040;-56
2022/03/18 05:51:21;;;;;;;2.40;0.25;;;18.40;43.00;;;;;;5030258;28;20046;-54
2022/03/18 05:53:48;;;;;;;0.98;0.35;;;18.40;43.30;;;;;;5027996;28;20051;-55
2022/03/18 05:59:00;;;;;;;1.40;0.40;;;18.40;43.00;;;;;;5022178;28;20080;-56
2022/03/18 06:01:30;;;;;;;0.40;0.30;;;18.40;43.10;;;;;;5028141;28;20128;-55
2022/03/18 06:03:57;;;;;;;1.35;0.70;;;18.40;43.00;;;;;;5028043;28;20555;-54
2022/03/18 06:06:25;;;;;;;0.55;0.38;;;18.40;43.00;;;;;;5029812;28;20042;-55
2022/03/18 06:11:51;;;;;;;0.80;0.20;;;18.40;43.00;;;;;;4981309;28;20061;-55
2022/03/18 06:14:19;;;;;;;0.80;0.30;;;18.30;43.00;;;;;;4985366;28;20181;-56
2022/03/18 06:16:49;;;;;;;0.98;0.30;;;18.30;43.00;;;;;;4984955;28;20096;-55
2022/03/18 06:19:17;;;;;;;0.85;0.22;;;18.30;43.00;;;;;;4983598;28;20141;-57
2022/03/18 06:21:44;;;;;;;1.65;0.40;;;18.30;43.00;;;;;;4980448;28;20053;-57
2022/03/18 06:24:12;;;;;;;0.63;0.45;;;18.30;42.90;;;;;;4981610;28;20050;-51
2022/03/18 06:26:40;;;;;;;0.43;0.30;;;18.30;42.90;;;;;;4982035;28;20046;-55
2022/03/18 06:29:08;;;;;;;2.15;0.95;;;18.30;42.90;;;;;;4978574;28;20609;-54
2022/03/18 06:31:36;;;;;;;0.98;0.20;;;18.30;42.90;;;;;;4980613;28;20047;-56
2022/03/18 06:34:05;;;;;;;0.82;0.45;;;18.30;42.80;;;;;;4984917;28;20536;-55
2022/03/18 06:36:32;;;;;;;0.70;0.22;;;18.30;42.80;;;;;;4982949;28;20100;-54
2022/03/18 06:38:59;;;;;;;1.95;0.50;;;18.30;42.90;;;;;;4976049;28;20053;-53
2022/03/18 06:41:26;;;;;;;0.28;0.20;;;18.30;42.80;;;;;;4980800;28;20508;-56
2022/03/18 06:43:54;;;;;;;0.65;0.45;;;18.30;42.80;;;;;;4982449;28;20046;-56
2022/03/18 06:46:21;;;;;;;0.30;0.30;;;18.30;42.70;;;;;;4983395;28;20038;-55
2022/03/18 06:48:48;;;;;;;0.55;0.30;;;18.30;42.70;;;;;;4998790;28;20037;-53
2022/03/18 06:51:17;;;;;;;1.00;0.57;;;18.30;42.70;;;;;;5028904;28;20040;-56
2022/03/18 06:53:44;;;;;;;1.70;0.50;;;18.30;42.70;;;;;;5026660;28;20033;-56
2022/03/18 06:56:12;;;;;;;2.30;0.63;;;18.30;42.70;;;;;;5026076;28;20049;-56
2022/03/18 06:58:42;;;;;;;0.52;0.20;;;18.30;42.70;;;;;;5026663;28;20147;-56
2022/03/18 07:01:09;;;;;;;1.95;0.22;;;18.30;42.70;;;;;;5025003;28;20504;-55
2022/03/18 07:03:36;;;;;;;0.88;0.50;;;18.30;42.70;;;;;;5025416;28;20069;-53
2022/03/18 07:06:03;;;;;;;1.20;0.20;;;18.30;42.70;;;;;;5027258;28;20133;-55
2022/03/18 07:08:34;;;;;;;0.63;0.60;;;18.30;42.70;;;;;;5025276;28;20049;-54
2022/03/18 07:11:01;;;;;;;0.68;0.20;;;18.30;42.70;;;;;;5026391;28;20587;-55
2022/03/18 07:13:28;;;;;;;1.17;0.40;;;18.30;42.60;;;;;;5026729;28;20175;-54
2022/03/18 07:15:56;;;;;;;0.40;0.30;;;18.30;42.60;;;;;;5026570;28;20067;-55
2022/03/18 07:18:22;;;;;;;0.30;0.10;;;18.30;42.70;;;;;;5026840;28;20045;-56
2022/03/18 07:20:49;;;;;;;2.63;0.98;;;18.30;42.60;;;;;;5026735;28;20046;-53
2022/03/18 07:23:19;;;;;;;0.80;0.30;;;18.30;42.50;;;;;;5026486;28;20176;-54
2022/03/18 07:25:50;;;;;;;1.17;0.10;;;18.30;42.60;;;;;;5026282;28;20041;-55
2022/03/18 07:28:17;;;;;;;2.63;0.32;;;18.30;42.60;;;;;;5026627;28;20053;-56
2022/03/18 07:30:46;;;;;;;1.40;0.50;;;18.30;42.50;;;;;;5026767;28;20044;-54
2022/03/18 07:33:14;;;;;;;0.63;0.28;;;18.30;42.50;;;;;;5026769;28;20527;-56
2022/03/18 07:35:42;;;;;;;0.50;0.50;;;18.30;42.50;;;;;;5026523;28;20686;-56
2022/03/18 07:38:10;;;;;;;2.42;0.30;;;18.30;42.50;;;;;;5024221;28;20099;-53
2022/03/18 07:40:37;;;;;;;1.00;0.40;;;18.30;42.60;;;;;;5026245;28;20429;-55
2022/03/18 07:43:08;;;;;;;1.38;0.20;;;18.40;42.60;;;;;;5026999;28;20045;-57
2022/03/18 07:45:38;;;;;;;2.35;0.20;;;18.40;42.60;;;;;;5028589;28;20878;-58
2022/03/18 07:48:07;;;;;;;1.67;0.60;;;18.40;42.50;;;;;;5025989;28;20041;-54
2022/03/18 07:50:35;;;;;;;0.50;0.40;;;18.40;42.60;;;;;;5026186;28;20092;-55
2022/03/18 07:53:04;;;;;;;0.93;0.43;;;18.40;42.50;;;;;;5025732;28;20056;-56
2022/03/18 07:55:32;;;;;;;0.60;0.22;;;18.40;42.50;;;;;;5025863;28;20116;-57
2022/03/18 07:58:00;;;;;;;0.70;0.38;;;18.40;42.50;;;;;;5026139;28;20091;-54
2022/03/18 08:00:29;;;;;;;0.20;0.20;;;18.40;42.50;;;;;;5027785;28;20152;-53
2022/03/18 08:02:56;;;;;;;0.43;0.20;;;18.50;42.60;;;;;;5025818;28;20093;-52
2022/03/18 08:05:23;;;;;;;1.33;0.40;;;18.50;42.50;;;;;;5004424;28;20041;-53
2022/03/18 08:07:52;;;;;;;0.50;0.40;;;18.50;42.50;;;;;;5024117;28;20034;-50
2022/03/18 08:10:19;;;;;;;0.45;0.30;;;18.50;42.50;;;;;;5024102;28;20069;-54
2022/03/18 08:12:47;;;;;;;2.15;0.63;;;18.60;42.50;;;;;;5025903;28;20041;-56
2022/03/18 08:15:15;;;;;;;1.83;0.70;;;18.60;42.50;;;;;;5026909;28;20037;-55
2022/03/18 08:17:44;;;;;;;2.10;0.43;;;18.60;42.50;;;;;;5021714;28;20096;-57
2022/03/18 08:20:13;;;;;;;0.30;0.20;;;18.60;42.40;;;;;;5025384;28;20107;-55
2022/03/18 08:22:41;;;;;;;4.40;0.93;;;18.70;42.50;;;;;;5025630;28;20494;-57
2022/03/18 08:25:09;;;;;;;2.00;0.50;;;18.70;42.40;;;;;;5024137;28;20041;-54
2022/03/18 08:27:36;;;;;;;0.98;0.45;;;18.70;42.40;;;;;;5026764;28;20033;-55
2022/03/18 08:30:05;;;;;;;0.68;0.68;;;18.70;42.30;;;;;;5024732;28;20052;-56
2022/03/18 08:32:33;;;;;;;1.20;0.40;;;18.70;42.20;;;;;;5025685;28;20033;-53
2022/03/18 08:35:02;;;;;;;0.95;0.30;;;18.80;42.30;;;;;;5026125;28;20132;-58
2022/03/18 08:40:15;;;;;;;0.40;0.38;;;18.80;42.10;;;;;;5018587;28;20050;-56
2022/03/18 08:42:42;;;;;;;0.65;0.30;;;18.80;42.10;;;;;;5024280;28;20055;-56
2022/03/18 08:45:10;;;;;;;1.08;0.70;;;18.80;42.00;;;;;;5051219;28;20049;-54
2022/03/18 08:47:38;;;;;;;1.27;0.63;;;18.80;41.90;;;;;;5025252;28;20037;-56
2022/03/18 08:50:07;;;;;;;1.98;0.40;;;18.80;41.80;;;;;;5027833;28;20120;-57
2022/03/18 08:52:34;;;;;;;2.10;0.43;;;18.90;41.90;;;;;;5029176;28;20627;-55
2022/03/18 08:55:01;;;;;;;1.05;0.57;;;18.90;41.80;;;;;;5029304;28;20081;-55
2022/03/18 08:57:28;;;;;;;1.58;0.50;;;18.90;41.80;;;;;;5031188;28;20056;-56
2022/03/18 08:59:56;;;;;;;1.40;0.43;;;19.00;41.70;;;;;;5029065;28;20578;-56
2022/03/18 09:02:24;;;;;;;0.93;0.90;;;19.00;41.60;;;;;;5023713;28;20064;-56
2022/03/18 09:04:52;;;;;;;2.08;0.52;;;19.00;42.20;;;;;;5022318;28;20041;-57
2022/03/18 09:07:20;;;;;;;0.75;0.43;;;19.00;41.50;;;;;;5022820;28;20049;-56
2022/03/18 09:09:47;;;;;;;2.42;0.30;;;19.00;41.40;;;;;;5026931;28;20058;-56
2022/03/18 09:12:17;;;;;;;1.65;0.20;;;19.00;41.40;;;;;;5029965;28;20061;-52
2022/03/18 09:14:44;;;;;;;1.35;0.25;;;19.10;41.40;;;;;;5026148;28;20060;-56
2022/03/18 09:17:12;;;;;;;3.20;0.38;;;19.10;41.30;;;;;;5022463;28;20033;-58
2022/03/18 09:19:39;;;;;;;1.33;0.20;;;19.10;41.20;;;;;;5021159;28;20049;-54
2022/03/18 09:22:06;;;;;;;1.10;0.30;;;19.10;41.20;;;;;;5028698;28;20053;-52
2022/03/18 09:24:35;;;;;;;1.67;0.68;;;19.20;41.10;;;;;;5030429;28;20064;-55
2022/03/18 09:27:03;;;;;;;0.75;0.40;;;19.20;41.00;;;;;;5028752;28;20048;-55
2022/03/18 09:29:31;;;;;;;3.42;1.00;;;19.20;41.00;;;;;;5024051;28;20048;-54
2022/03/18 09:31:58;;;;;;;1.30;0.40;;;19.20;40.90;;;;;;5022631;28;20567;-55
2022/03/18 09:34:25;;;;;;;0.65;0.30;;;19.20;40.80;;;;;;5028546;28;20042;-55
2022/03/18 09:36:53;;;;;;;0.60;0.30;;;19.30;40.80;;;;;;5028489;28;20128;-55
2022/03/18 09:39:21;;;;;;;0.35;0.10;;;19.30;40.70;;;;;;5029483;28;20068;-56
2022/03/18 09:41:49;;;;;;;2.05;0.32;;;19.30;40.70;;;;;;5028335;28;20600;-57
2022/03/18 09:44:17;;;;;;;2.10;0.20;;;19.30;40.60;;;;;;5028128;28;20135;-55
2022/03/18 09:46:47;;;;;;;0.40;0.17;;;19.40;40.50;;;;;;5028252;28;20125;-55
2022/03/18 09:49:16;;;;;;;0.20;0.20;;;19.40;40.50;;;;;;5021949;28;20033;-55
2022/03/18 09:51:43;;;;;;;0.47;0.30;;;19.40;40.40;;;;;;5024673;28;20494;-55
2022/03/18 09:54:26;;;;;;;0.22;0.22;;;19.40;40.30;;;;;;5016324;28;20046;-53
2022/03/18 09:56:55;;;;;;;1.17;0.25;;;19.40;40.20;;;;;;5027967;28;20037;-53
2022/03/18 09:59:23;;;;;;;0.40;0.10;;;19.50;40.20;;;;;;5027887;28;20046;-56
2022/03/18 10:01:50;;;;;;;0.30;0.30;;;19.50;40.20;;;;;;5027327;28;20042;-56
2022/03/18 10:04:17;;;;;;;1.13;0.17;;;19.50;40.10;;;;;;5028036;28;20033;-55
2022/03/18 10:06:44;;;;;;;1.27;0.38;;;19.60;40.00;;;;;;5028766;28;20112;-55
2022/03/18 10:09:13;;;;;;;0.30;0.30;;;19.50;39.80;;;;;;5028201;28;20187;-55
2022/03/18 10:11:43;;;;;;;2.30;0.22;;;19.60;39.70;;;;;;5027997;28;20056;-55
2022/03/18 10:14:15;;;;;;;1.85;0.25;;;19.60;39.70;;;;;;5023341;28;20041;-55
2022/03/18 10:16:44;;;;;;;0.40;0.20;;;19.70;39.70;;;;;;5027896;28;20485;-55
2022/03/18 10:19:14;;;;;;;0.45;0.20;;;19.70;40.10;;;;;;5027235;28;20051;-54
2022/03/18 10:21:51;;;;;;;0.75;0.20;;;19.80;39.50;;;;;;5028784;28;20053;-56
2022/03/18 10:24:20;;;;;;;0.95;0.40;;;19.80;39.30;;;;;;5058594;28;20148;-55
2022/03/18 10:26:49;;;;;;;1.48;0.10;;;19.80;39.30;;;;;;5027301;28;20040;-54
2022/03/18 10:29:18;;;;;;;1.02;0.20;;;19.80;39.20;;;;;;5027168;28;20033;-54
2022/03/18 10:32:00;;;;;;;0.95;0.40;;;19.90;39.70;;;;;;5027402;28;20037;-55
2022/03/18 10:37:21;;;;;;;2.08;0.20;;;20.00;38.90;;;;;;5023649;28;20757;-56
2022/03/18 10:39:50;;;;;;;3.33;0.50;;;20.00;39.50;;;;;;5027697;28;20045;-54
2022/03/18 10:42:19;;;;;;;0.17;0.10;;;20.00;38.70;;;;;;5028456;28;20051;-56
2022/03/18 10:44:49;;;;;;;0.57;0.30;;;20.10;38.60;;;;;;5026967;28;20140;-52
2022/03/18 10:47:27;;;;;;;1.75;0.20;;;20.10;38.60;;;;;;5027207;28;20045;-57
2022/03/18 10:50:12;;;;;;;0.10;0.10;;;20.20;38.90;;;;;;5027077;28;20080;-55
2022/03/18 10:52:40;;;;;;;0.93;0.17;;;20.20;38.40;;;;;;5021459;28;20095;-55
2022/03/18 10:55:16;;;;;;;0.20;0.20;;;20.20;38.30;;;;;;5020011;28;20041;-54
2022/03/18 10:57:50;;;;;;;1.45;0.30;;;20.20;38.10;;;;;;5024728;28;20507;-52
2022/03/18 11:00:18;;;;;;;1.83;0.20;;;20.30;38.10;;;;;;5028099;28;20049;-55
2022/03/18 11:02:48;;;;;;;0.20;0.20;;;20.30;37.90;;;;;;5026672;28;20092;-55
2022/03/18 11:05:17;;;;;;;1.25;0.25;;;20.40;37.80;;;;;;5025325;28;20037;-56
2022/03/18 11:07:44;;;;;;;0.20;0.10;;;20.40;37.50;;;;;;5026874;28;20147;-55
2022/03/18 11:13:00;;;;;;;0.10;0.10;;;20.60;37.40;;;;;;5025928;28;20046;-55
2022/03/18 11:15:30;;;;;;;0.10;0.10;;;20.60;37.30;;;;;;5028028;28;20042;-54
2022/03/18 11:17:57;;;;;;;2.88;0.10;;;20.60;37.10;;;;;;5026503;28;20141;-53
2022/03/18 11:20:26;;;;;;;0.30;0.10;;;20.70;37.10;;;;;;5026788;28;20037;-55
2022/03/18 11:22:53;;;;;;;0.10;0.10;;;20.80;37.00;;;;;;5026463;28;20037;-56
2022/03/18 11:25:21;;;;;;;0.88;0.10;;;20.80;36.80;;;;;;5026426;28;20043;-54
2022/03/18 11:27:48;;;;;;;0.65;0.10;;;20.90;36.80;;;;;;5026818;28;20045;-54
2022/03/18 11:30:21;;;;;;;3.22;0.15;;;20.90;36.80;;;;;;5027738;28;20049;-56
2022/03/18 11:33:21;;;;;;;0.10;0.10;;;21.00;36.70;;;;;;5026073;28;20041;-53
2022/03/18 11:36:17;;;;;;;1.95;0.10;;;21.10;36.70;;;;;;5025307;28;20041;-56
2022/03/18 11:38:57;;;;;;;0.63;0.10;;;21.10;36.60;;;;;;5023466;28;20046;-51
2022/03/18 11:41:26;;;;;;;0.75;0.50;;;21.10;36.60;;;;;;5021479;28;20044;-53
2022/03/18 11:43:54;;;;;;;0.73;0.20;;;21.20;36.60;;;;;;5026010;28;20033;-51
2022/03/18 11:46:28;;;;;;;0.40;0.20;;;21.30;37.20;;;;;;5026382;28;20069;-52
2022/03/18 11:48:59;;;;;;;0.28;0.10;;;21.40;36.50;;;;;;5026226;28;20073;-54
2022/03/18 11:51:29;;;;;;;0.30;0.10;;;21.40;36.50;;;;;;5027862;28;20424;-54
2022/03/18 11:53:59;;;;;;;2.15;0.13;;;21.40;36.40;;;;;;5025880;28;20590;-53
2022/03/18 11:56:44;;;;;;;0.57;0.57;;;21.50;36.30;;;;;;5026138;28;20089;-54
2022/03/18 11:59:40;;;;;;;0.22;0.10;;;21.60;36.20;;;;;;5025941;28;20152;-55
2022/03/18 12:02:09;;;;;;;0.20;0.10;;;21.70;36.10;;;;;;5022082;28;20530;-55
2022/03/18 12:04:42;;;;;;;0.85;0.10;;;21.70;36.10;;;;;;5024755;28;20084;-54
2022/03/18 12:07:24;;;;;;;0.50;0.20;;;21.80;35.90;;;;;;5018363;28;20041;-54
2022/03/18 12:09:56;;;;;;;0.50;0.10;;;21.80;36.30;;;;;;5024970;28;20811;-55
2022/03/18 12:12:25;;;;;;;0.63;0.20;;;21.90;35.70;;;;;;5027010;28;20148;-54
2022/03/18 12:14:53;;;;;;;0.43;0.10;;;21.90;35.60;;;;;;5025917;28;20057;-55
2022/03/18 12:17:21;;;;;;;2.22;0.20;;;22.00;35.50;;;;;;5025402;28;20037;-51
2022/03/18 12:19:52;;;;;;;0.85;0.10;;;22.00;35.40;;;;;;5026060;28;20732;-57
2022/03/18 12:22:20;;;;;;;0.50;0.47;;;22.10;35.40;;;;;;5019601;28;20662;-56
2022/03/18 12:24:52;;;;;;;0.20;0.10;;;22.20;36.00;;;;;;5025816;28;20052;-55
2022/03/18 12:27:21;;;;;;;0.57;0.10;;;22.20;35.30;;;;;;5025451;28;20080;-56
2022/03/18 12:29:51;;;;;;;0.20;0.10;;;22.30;35.30;;;;;;5025518;28;20033;-51
2022/03/18 12:32:18;;;;;;;0.40;0.10;;;22.30;35.20;;;;;;5025459;28;20030;-51
2022/03/18 12:34:51;;;;;;;0.20;0.10;;;22.40;35.20;;;;;;5025828;28;20109;-58
2022/03/18 12:37:22;;;;;;;2.83;0.10;;;22.40;35.10;;;;;;5025592;28;20064;-50
2022/03/18 12:40:02;;;;;;;0.55;0.20;;;22.50;35.10;;;;;;5025545;28;20069;-56
2022/03/18 12:42:30;;;;;;;2.17;0.13;;;22.50;34.90;;;;;;5026423;28;20133;-60
2022/03/18 12:45:00;;;;;;;1.25;0.10;;;22.60;35.00;;;;;;5023765;28;20554;-55
2022/03/18 12:47:30;;;;;;;0.88;0.10;;;22.60;34.90;;;;;;5025440;28;20044;-56
2022/03/18 12:50:00;;;;;;;0.90;0.10;;;22.70;34.90;;;;;;5025475;28;20586;-55
2022/03/18 12:52:27;;;;;;;0.30;0.10;;;22.70;34.80;;;;;;5025383;28;20483;-54
2022/03/18 12:55:05;;;;;;;0.63;0.10;;;22.80;34.80;;;;;;5025390;28;20052;-56
2022/03/18 12:57:34;;;;;;;0.10;0.10;;;22.90;34.80;;;;;;5027082;28;20045;-54
2022/03/18 13:00:01;;;;;;;0.20;0.10;;;22.90;34.80;;;;;;5024608;28;20659;-56
2022/03/18 13:02:28;;;;;;;1.70;0.10;;;22.90;34.80;;;;;;5024225;28;20407;-52
2022/03/18 13:05:00;;;;;;;0.10;0.10;;;23.00;34.70;;;;;;5025396;28;20130;-55
2022/03/18 13:07:28;;;;;;;1.13;0.10;;;23.10;34.80;;;;;;5024797;28;20404;-54
2022/03/18 13:09:56;;;;;;;0.10;0.10;;;23.10;34.70;;;;;;5023813;28;20103;-54
2022/03/18 13:12:24;;;;;;;1.58;0.10;;;23.10;34.70;;;;;;5027096;28;20426;-55
2022/03/18 13:14:55;;;;;;;1.38;0.05;;;23.20;34.60;;;;;;5024672;28;20211;-56
2022/03/18 13:17:23;;;;;;;0.28;0.28;;;23.30;34.70;;;;;;5025139;28;20124;-56
2022/03/18 13:19:51;;;;;;;0.15;0.10;;;23.30;34.60;;;;;;5024776;28;20042;-55